sensor_id;sensor_type;location;lat;lon;timestamp;P1;durP1;ratioP1;P2;durP2;ratioP2
25936;SDS011;13733;51.178;4.450;2023-07-13T00:02:15;10.02;;;2.45;;
25936;SDS011;13733;51.178;4.450;2023-07-13T00:04:41;8.27;;;2.38;;
25936;SDS011;13733;51.178;4.450;2023-07-13T00:07:07;9.40;;;2.30;;
25936;SDS011;13733;51.178;4.450;2023-07-13T00:09:34;11.18;;;2.92;;
25936;SDS011;13733;51.178;4.450;2023-07-13T00:12:00;10.98;;;2.75;;
25936;SDS011;13733;51.178;4.450;2023-07-13T00:14:28;11.38;;;2.38;;
25936;SDS011;13733;51.178;4.450;2023-07-13T00:16:55;10.68;;;2.50;;
25936;SDS011;13733;51.178;4.450;2023-07-13T00:19:21;12.63;;;3.00;;
25936;SDS011;13733;51.178;4.450;2023-07-13T00:21:47;12.43;;;2.45;;
25936;SDS011;13733;51.178;4.450;2023-07-13T00:24:14;10.07;;;2.58;;
25936;SDS011;13733;51.178;4.450;2023-07-13T00:26:41;10.02;;;2.53;;
25936;SDS011;13733;51.178;4.450;2023-07-13T00:29:11;16.73;;;2.95;;
25936;SDS011;13733;51.178;4.450;2023-07-13T00:31:37;9.95;;;2.78;;
25936;SDS011;13733;51.178;4.450;2023-07-13T00:34:03;12.05;;;2.53;;
25936;SDS011;13733;51.178;4.450;2023-07-13T00:36:30;11.82;;;2.45;;
25936;SDS011;13733;51.178;4.450;2023-07-13T00:38:56;12.27;;;2.78;;
25936;SDS011;13733;51.178;4.450;2023-07-13T00:41:23;9.85;;;2.50;;
25936;SDS011;13733;51.178;4.450;2023-07-13T00:43:49;10.60;;;2.35;;
25936;SDS011;13733;51.178;4.450;2023-07-13T00:48:49;11.07;;;2.90;;
25936;SDS011;13733;51.178;4.450;2023-07-13T00:51:17;10.82;;;2.65;;
25936;SDS011;13733;51.178;4.450;2023-07-13T00:53:46;12.05;;;3.03;;
25936;SDS011;13733;51.178;4.450;2023-07-13T00:56:12;11.00;;;2.60;;
25936;SDS011;13733;51.178;4.450;2023-07-13T00:58:38;12.90;;;2.90;;
25936;SDS011;13733;51.178;4.450;2023-07-13T01:01:04;11.85;;;2.90;;
25936;SDS011;13733;51.178;4.450;2023-07-13T01:03:30;13.23;;;3.03;;
25936;SDS011;13733;51.178;4.450;2023-07-13T01:05:56;10.88;;;2.78;;
25936;SDS011;13733;51.178;4.450;2023-07-13T01:08:22;11.43;;;2.78;;
25936;SDS011;13733;51.178;4.450;2023-07-13T01:10:55;10.07;;;2.88;;
25936;SDS011;13733;51.178;4.450;2023-07-13T01:13:22;10.32;;;2.47;;
25936;SDS011;13733;51.178;4.450;2023-07-13T01:15:50;11.40;;;2.67;;
25936;SDS011;13733;51.178;4.450;2023-07-13T01:18:21;13.20;;;3.28;;
25936;SDS011;13733;51.178;4.450;2023-07-13T01:20:56;13.48;;;3.08;;
25936;SDS011;13733;51.178;4.450;2023-07-13T01:23:24;13.77;;;3.42;;
25936;SDS011;13733;51.178;4.450;2023-07-13T01:25:54;16.13;;;3.70;;
25936;SDS011;13733;51.178;4.450;2023-07-13T01:28:20;13.38;;;3.13;;
25936;SDS011;13733;51.178;4.450;2023-07-13T01:30:47;10.65;;;2.95;;
25936;SDS011;13733;51.178;4.450;2023-07-13T01:33:16;8.18;;;2.63;;
25936;SDS011;13733;51.178;4.450;2023-07-13T01:35:44;12.25;;;3.20;;
25936;SDS011;13733;51.178;4.450;2023-07-13T01:38:11;14.82;;;3.30;;
25936;SDS011;13733;51.178;4.450;2023-07-13T01:40:40;10.40;;;2.80;;
25936;SDS011;13733;51.178;4.450;2023-07-13T01:43:06;11.32;;;3.13;;
25936;SDS011;13733;51.178;4.450;2023-07-13T01:45:32;15.30;;;3.08;;
25936;SDS011;13733;51.178;4.450;2023-07-13T01:47:58;18.88;;;3.00;;
25936;SDS011;13733;51.178;4.450;2023-07-13T01:50:24;12.40;;;3.28;;
25936;SDS011;13733;51.178;4.450;2023-07-13T01:52:51;14.25;;;3.47;;
25936;SDS011;13733;51.178;4.450;2023-07-13T01:55:18;11.63;;;3.08;;
25936;SDS011;13733;51.178;4.450;2023-07-13T01:57:45;11.75;;;3.13;;
25936;SDS011;13733;51.178;4.450;2023-07-13T02:00:12;16.85;;;3.28;;
25936;SDS011;13733;51.178;4.450;2023-07-13T02:02:41;12.55;;;3.38;;
25936;SDS011;13733;51.178;4.450;2023-07-13T02:05:09;13.00;;;2.80;;
25936;SDS011;13733;51.178;4.450;2023-07-13T02:07:35;13.77;;;2.80;;
25936;SDS011;13733;51.178;4.450;2023-07-13T02:10:02;16.77;;;3.17;;
25936;SDS011;13733;51.178;4.450;2023-07-13T02:12:28;14.07;;;2.92;;
25936;SDS011;13733;51.178;4.450;2023-07-13T02:14:54;16.63;;;3.25;;
25936;SDS011;13733;51.178;4.450;2023-07-13T02:17:20;14.82;;;3.50;;
25936;SDS011;13733;51.178;4.450;2023-07-13T02:19:45;13.65;;;3.28;;
25936;SDS011;13733;51.178;4.450;2023-07-13T02:22:11;13.30;;;3.10;;
25936;SDS011;13733;51.178;4.450;2023-07-13T02:24:37;14.65;;;3.38;;
25936;SDS011;13733;51.178;4.450;2023-07-13T02:27:04;17.40;;;3.67;;
25936;SDS011;13733;51.178;4.450;2023-07-13T02:29:31;14.27;;;3.40;;
25936;SDS011;13733;51.178;4.450;2023-07-13T02:31:57;14.88;;;3.60;;
25936;SDS011;13733;51.178;4.450;2023-07-13T02:34:22;12.50;;;2.97;;
25936;SDS011;13733;51.178;4.450;2023-07-13T02:36:48;13.00;;;3.08;;
25936;SDS011;13733;51.178;4.450;2023-07-13T02:39:14;15.85;;;3.42;;
25936;SDS011;13733;51.178;4.450;2023-07-13T02:41:40;13.30;;;3.60;;
25936;SDS011;13733;51.178;4.450;2023-07-13T02:44:06;14.63;;;2.88;;
25936;SDS011;13733;51.178;4.450;2023-07-13T02:46:34;12.45;;;3.55;;
25936;SDS011;13733;51.178;4.450;2023-07-13T02:49:02;15.35;;;3.45;;
25936;SDS011;13733;51.178;4.450;2023-07-13T02:51:29;14.80;;;3.22;;
25936;SDS011;13733;51.178;4.450;2023-07-13T02:53:55;14.00;;;3.70;;
25936;SDS011;13733;51.178;4.450;2023-07-13T02:56:22;11.65;;;3.40;;
25936;SDS011;13733;51.178;4.450;2023-07-13T02:58:51;14.02;;;3.20;;
25936;SDS011;13733;51.178;4.450;2023-07-13T03:01:17;16.60;;;3.67;;
25936;SDS011;13733;51.178;4.450;2023-07-13T03:03:45;17.23;;;3.22;;
25936;SDS011;13733;51.178;4.450;2023-07-13T03:06:12;11.02;;;3.20;;
25936;SDS011;13733;51.178;4.450;2023-07-13T03:08:46;15.10;;;3.20;;
25936;SDS011;13733;51.178;4.450;2023-07-13T03:11:15;11.50;;;2.85;;
25936;SDS011;13733;51.178;4.450;2023-07-13T03:13:44;13.95;;;3.58;;
25936;SDS011;13733;51.178;4.450;2023-07-13T03:16:12;11.32;;;3.58;;
25936;SDS011;13733;51.178;4.450;2023-07-13T03:21:09;13.48;;;3.17;;
25936;SDS011;13733;51.178;4.450;2023-07-13T03:23:35;16.98;;;4.05;;
25936;SDS011;13733;51.178;4.450;2023-07-13T03:28:39;11.82;;;3.45;;
25936;SDS011;13733;51.178;4.450;2023-07-13T03:31:08;15.50;;;3.45;;
25936;SDS011;13733;51.178;4.450;2023-07-13T03:33:36;13.25;;;3.35;;
25936;SDS011;13733;51.178;4.450;2023-07-13T03:36:04;15.93;;;4.15;;
25936;SDS011;13733;51.178;4.450;2023-07-13T03:38:30;13.93;;;3.30;;
25936;SDS011;13733;51.178;4.450;2023-07-13T03:40:58;16.70;;;4.00;;
25936;SDS011;13733;51.178;4.450;2023-07-13T03:43:25;15.18;;;3.88;;
25936;SDS011;13733;51.178;4.450;2023-07-13T03:45:52;15.50;;;4.07;;
25936;SDS011;13733;51.178;4.450;2023-07-13T03:48:18;15.55;;;3.60;;
25936;SDS011;13733;51.178;4.450;2023-07-13T03:50:44;17.58;;;4.55;;
25936;SDS011;13733;51.178;4.450;2023-07-13T03:53:09;18.02;;;3.88;;
25936;SDS011;13733;51.178;4.450;2023-07-13T03:55:35;17.38;;;3.85;;
25936;SDS011;13733;51.178;4.450;2023-07-13T04:00:58;19.27;;;4.28;;
25936;SDS011;13733;51.178;4.450;2023-07-13T04:03:26;18.83;;;4.45;;
25936;SDS011;13733;51.178;4.450;2023-07-13T04:05:54;17.17;;;4.88;;
25936;SDS011;13733;51.178;4.450;2023-07-13T04:08:25;18.73;;;4.45;;
25936;SDS011;13733;51.178;4.450;2023-07-13T04:10:55;20.38;;;4.40;;
25936;SDS011;13733;51.178;4.450;2023-07-13T04:13:22;18.25;;;4.40;;
25936;SDS011;13733;51.178;4.450;2023-07-13T04:15:49;17.60;;;4.15;;
25936;SDS011;13733;51.178;4.450;2023-07-13T04:18:16;23.17;;;4.45;;
25936;SDS011;13733;51.178;4.450;2023-07-13T04:20:41;18.10;;;3.65;;
25936;SDS011;13733;51.178;4.450;2023-07-13T04:23:07;20.25;;;4.90;;
25936;SDS011;13733;51.178;4.450;2023-07-13T04:25:33;18.88;;;3.97;;
25936;SDS011;13733;51.178;4.450;2023-07-13T04:27:59;19.27;;;4.10;;
25936;SDS011;13733;51.178;4.450;2023-07-13T04:30:24;18.88;;;4.07;;
25936;SDS011;13733;51.178;4.450;2023-07-13T04:32:51;14.90;;;3.47;;
25936;SDS011;13733;51.178;4.450;2023-07-13T04:35:19;16.65;;;3.83;;
25936;SDS011;13733;51.178;4.450;2023-07-13T04:37:46;14.32;;;3.95;;
25936;SDS011;13733;51.178;4.450;2023-07-13T04:40:18;18.83;;;3.55;;
25936;SDS011;13733;51.178;4.450;2023-07-13T04:42:45;14.80;;;4.20;;
25936;SDS011;13733;51.178;4.450;2023-07-13T04:45:12;19.05;;;4.45;;
25936;SDS011;13733;51.178;4.450;2023-07-13T04:47:39;18.42;;;4.47;;
25936;SDS011;13733;51.178;4.450;2023-07-13T04:50:05;14.48;;;3.83;;
25936;SDS011;13733;51.178;4.450;2023-07-13T04:52:32;29.50;;;4.53;;
25936;SDS011;13733;51.178;4.450;2023-07-13T04:54:58;14.68;;;3.85;;
25936;SDS011;13733;51.178;4.450;2023-07-13T04:57:25;21.08;;;4.82;;
25936;SDS011;13733;51.178;4.450;2023-07-13T04:59:51;15.45;;;3.88;;
25936;SDS011;13733;51.178;4.450;2023-07-13T05:02:17;19.50;;;4.90;;
25936;SDS011;13733;51.178;4.450;2023-07-13T05:04:48;17.33;;;4.65;;
25936;SDS011;13733;51.178;4.450;2023-07-13T05:07:14;16.80;;;3.72;;
25936;SDS011;13733;51.178;4.450;2023-07-13T05:09:40;19.52;;;4.43;;
25936;SDS011;13733;51.178;4.450;2023-07-13T05:12:07;14.07;;;4.05;;
25936;SDS011;13733;51.178;4.450;2023-07-13T05:14:33;21.55;;;4.28;;
25936;SDS011;13733;51.178;4.450;2023-07-13T05:16:59;18.55;;;4.53;;
25936;SDS011;13733;51.178;4.450;2023-07-13T05:19:24;21.45;;;4.45;;
25936;SDS011;13733;51.178;4.450;2023-07-13T05:21:50;18.27;;;4.63;;
25936;SDS011;13733;51.178;4.450;2023-07-13T05:24:16;20.38;;;4.80;;
25936;SDS011;13733;51.178;4.450;2023-07-13T05:26:42;20.70;;;4.57;;
25936;SDS011;13733;51.178;4.450;2023-07-13T05:29:07;17.73;;;4.03;;
25936;SDS011;13733;51.178;4.450;2023-07-13T05:31:33;16.77;;;4.10;;
25936;SDS011;13733;51.178;4.450;2023-07-13T05:33:59;15.35;;;3.88;;
25936;SDS011;13733;51.178;4.450;2023-07-13T05:36:24;22.77;;;4.88;;
25936;SDS011;13733;51.178;4.450;2023-07-13T05:38:50;15.85;;;4.10;;
25936;SDS011;13733;51.178;4.450;2023-07-13T05:41:16;19.88;;;4.15;;
25936;SDS011;13733;51.178;4.450;2023-07-13T05:43:42;20.15;;;4.15;;
25936;SDS011;13733;51.178;4.450;2023-07-13T05:46:08;20.10;;;4.22;;
25936;SDS011;13733;51.178;4.450;2023-07-13T05:48:33;22.05;;;4.53;;
25936;SDS011;13733;51.178;4.450;2023-07-13T05:51:00;24.10;;;4.70;;
25936;SDS011;13733;51.178;4.450;2023-07-13T05:53:26;17.17;;;4.05;;
25936;SDS011;13733;51.178;4.450;2023-07-13T05:55:53;15.05;;;4.63;;
25936;SDS011;13733;51.178;4.450;2023-07-13T05:58:20;16.13;;;4.38;;
25936;SDS011;13733;51.178;4.450;2023-07-13T06:00:46;17.98;;;4.22;;
25936;SDS011;13733;51.178;4.450;2023-07-13T06:03:13;27.45;;;4.80;;
25936;SDS011;13733;51.178;4.450;2023-07-13T06:05:39;19.27;;;3.97;;
25936;SDS011;13733;51.178;4.450;2023-07-13T06:08:06;17.98;;;4.28;;
25936;SDS011;13733;51.178;4.450;2023-07-13T06:10:33;16.10;;;4.05;;
25936;SDS011;13733;51.178;4.450;2023-07-13T06:12:59;16.38;;;4.47;;
25936;SDS011;13733;51.178;4.450;2023-07-13T06:15:25;15.98;;;4.80;;
25936;SDS011;13733;51.178;4.450;2023-07-13T06:17:51;20.35;;;4.45;;
25936;SDS011;13733;51.178;4.450;2023-07-13T06:20:17;15.95;;;4.15;;
25936;SDS011;13733;51.178;4.450;2023-07-13T06:22:43;18.30;;;4.28;;
25936;SDS011;13733;51.178;4.450;2023-07-13T06:25:09;21.17;;;4.50;;
25936;SDS011;13733;51.178;4.450;2023-07-13T06:27:35;21.23;;;4.72;;
25936;SDS011;13733;51.178;4.450;2023-07-13T06:30:02;22.08;;;3.92;;
25936;SDS011;13733;51.178;4.450;2023-07-13T06:32:28;16.48;;;4.93;;
25936;SDS011;13733;51.178;4.450;2023-07-13T06:34:54;19.42;;;4.43;;
25936;SDS011;13733;51.178;4.450;2023-07-13T06:37:19;18.92;;;4.70;;
25936;SDS011;13733;51.178;4.450;2023-07-13T06:39:45;17.73;;;4.07;;
25936;SDS011;13733;51.178;4.450;2023-07-13T06:42:11;15.25;;;3.95;;
25936;SDS011;13733;51.178;4.450;2023-07-13T06:44:36;13.43;;;3.92;;
25936;SDS011;13733;51.178;4.450;2023-07-13T06:47:02;22.58;;;4.72;;
25936;SDS011;13733;51.178;4.450;2023-07-13T06:49:28;18.40;;;5.15;;
25936;SDS011;13733;51.178;4.450;2023-07-13T06:51:54;17.48;;;4.75;;
25936;SDS011;13733;51.178;4.450;2023-07-13T06:54:20;24.00;;;4.80;;
25936;SDS011;13733;51.178;4.450;2023-07-13T06:56:45;21.40;;;4.55;;
25936;SDS011;13733;51.178;4.450;2023-07-13T06:59:11;15.32;;;4.05;;
25936;SDS011;13733;51.178;4.450;2023-07-13T07:01:37;14.30;;;3.88;;
25936;SDS011;13733;51.178;4.450;2023-07-13T07:04:03;19.95;;;4.03;;
25936;SDS011;13733;51.178;4.450;2023-07-13T07:06:29;25.27;;;5.18;;
25936;SDS011;13733;51.178;4.450;2023-07-13T07:08:55;22.23;;;4.82;;
25936;SDS011;13733;51.178;4.450;2023-07-13T07:11:24;19.55;;;4.35;;
25936;SDS011;13733;51.178;4.450;2023-07-13T07:13:51;20.30;;;4.50;;
25936;SDS011;13733;51.178;4.450;2023-07-13T07:16:19;14.90;;;4.28;;
25936;SDS011;13733;51.178;4.450;2023-07-13T07:18:46;17.42;;;4.55;;
25936;SDS011;13733;51.178;4.450;2023-07-13T07:21:13;17.45;;;4.15;;
25936;SDS011;13733;51.178;4.450;2023-07-13T07:23:39;19.42;;;4.68;;
25936;SDS011;13733;51.178;4.450;2023-07-13T07:26:05;18.33;;;5.05;;
25936;SDS011;13733;51.178;4.450;2023-07-13T07:28:35;16.57;;;4.57;;
25936;SDS011;13733;51.178;4.450;2023-07-13T07:31:01;21.27;;;4.60;;
25936;SDS011;13733;51.178;4.450;2023-07-13T07:33:27;24.83;;;4.68;;
25936;SDS011;13733;51.178;4.450;2023-07-13T07:35:53;18.85;;;4.65;;
25936;SDS011;13733;51.178;4.450;2023-07-13T07:38:18;16.02;;;4.30;;
25936;SDS011;13733;51.178;4.450;2023-07-13T07:40:45;19.65;;;4.32;;
25936;SDS011;13733;51.178;4.450;2023-07-13T07:43:11;17.98;;;4.45;;
25936;SDS011;13733;51.178;4.450;2023-07-13T07:45:38;19.58;;;4.60;;
25936;SDS011;13733;51.178;4.450;2023-07-13T07:48:05;17.20;;;4.70;;
25936;SDS011;13733;51.178;4.450;2023-07-13T07:50:33;14.13;;;4.15;;
25936;SDS011;13733;51.178;4.450;2023-07-13T07:52:59;22.33;;;4.40;;
25936;SDS011;13733;51.178;4.450;2023-07-13T07:55:27;16.60;;;4.28;;
25936;SDS011;13733;51.178;4.450;2023-07-13T07:57:53;20.40;;;4.53;;
25936;SDS011;13733;51.178;4.450;2023-07-13T08:00:18;16.30;;;4.43;;
25936;SDS011;13733;51.178;4.450;2023-07-13T08:02:45;20.52;;;4.25;;
25936;SDS011;13733;51.178;4.450;2023-07-13T08:05:12;16.95;;;3.92;;
25936;SDS011;13733;51.178;4.450;2023-07-13T08:07:38;17.58;;;4.28;;
25936;SDS011;13733;51.178;4.450;2023-07-13T08:10:05;13.88;;;4.05;;
25936;SDS011;13733;51.178;4.450;2023-07-13T08:12:35;18.67;;;4.45;;
25936;SDS011;13733;51.178;4.450;2023-07-13T08:15:01;16.52;;;4.15;;
25936;SDS011;13733;51.178;4.450;2023-07-13T08:17:27;19.05;;;4.15;;
25936;SDS011;13733;51.178;4.450;2023-07-13T08:19:53;17.00;;;4.30;;
25936;SDS011;13733;51.178;4.450;2023-07-13T08:22:20;17.33;;;4.40;;
25936;SDS011;13733;51.178;4.450;2023-07-13T08:24:47;21.00;;;4.65;;
25936;SDS011;13733;51.178;4.450;2023-07-13T08:27:20;16.73;;;3.67;;
25936;SDS011;13733;51.178;4.450;2023-07-13T08:29:47;14.57;;;3.90;;
25936;SDS011;13733;51.178;4.450;2023-07-13T08:32:14;25.38;;;4.38;;
25936;SDS011;13733;51.178;4.450;2023-07-13T08:34:40;15.48;;;3.95;;
25936;SDS011;13733;51.178;4.450;2023-07-13T08:37:08;16.48;;;4.32;;
25936;SDS011;13733;51.178;4.450;2023-07-13T08:39:34;14.75;;;3.65;;
25936;SDS011;13733;51.178;4.450;2023-07-13T08:42:02;17.10;;;3.80;;
25936;SDS011;13733;51.178;4.450;2023-07-13T08:47:22;11.10;;;3.42;;
25936;SDS011;13733;51.178;4.450;2023-07-13T08:49:49;9.85;;;2.90;;
25936;SDS011;13733;51.178;4.450;2023-07-13T08:52:33;11.10;;;3.13;;
25936;SDS011;13733;51.178;4.450;2023-07-13T08:55:05;10.95;;;3.30;;
25936;SDS011;13733;51.178;4.450;2023-07-13T08:57:50;11.82;;;3.50;;
25936;SDS011;13733;51.178;4.450;2023-07-13T09:00:25;14.85;;;3.65;;
25936;SDS011;13733;51.178;4.450;2023-07-13T09:03:03;9.15;;;3.17;;
25936;SDS011;13733;51.178;4.450;2023-07-13T09:05:34;13.82;;;3.33;;
25936;SDS011;13733;51.178;4.450;2023-07-13T09:10:52;11.93;;;3.38;;
25936;SDS011;13733;51.178;4.450;2023-07-13T09:13:38;11.10;;;2.78;;
25936;SDS011;13733;51.178;4.450;2023-07-13T09:16:11;9.68;;;2.90;;
25936;SDS011;13733;51.178;4.450;2023-07-13T09:18:38;14.38;;;3.55;;
25936;SDS011;13733;51.178;4.450;2023-07-13T09:23:36;13.88;;;3.35;;
25936;SDS011;13733;51.178;4.450;2023-07-13T09:26:04;13.52;;;3.45;;
25936;SDS011;13733;51.178;4.450;2023-07-13T09:28:37;12.98;;;3.53;;
25936;SDS011;13733;51.178;4.450;2023-07-13T09:31:11;12.25;;;3.40;;
25936;SDS011;13733;51.178;4.450;2023-07-13T09:33:42;8.98;;;3.08;;
25936;SDS011;13733;51.178;4.450;2023-07-13T09:36:20;7.50;;;3.05;;
25936;SDS011;13733;51.178;4.450;2023-07-13T09:38:57;12.63;;;3.13;;
25936;SDS011;13733;51.178;4.450;2023-07-13T09:44:14;15.38;;;3.30;;
25936;SDS011;13733;51.178;4.450;2023-07-13T09:47:00;17.85;;;4.00;;
25936;SDS011;13733;51.178;4.450;2023-07-13T09:49:33;13.65;;;4.18;;
25936;SDS011;13733;51.178;4.450;2023-07-13T09:52:05;14.20;;;3.83;;
25936;SDS011;13733;51.178;4.450;2023-07-13T09:54:34;15.68;;;4.15;;
25936;SDS011;13733;51.178;4.450;2023-07-13T09:57:01;15.63;;;4.72;;
25936;SDS011;13733;51.178;4.450;2023-07-13T09:59:29;14.43;;;4.47;;
25936;SDS011;13733;51.178;4.450;2023-07-13T10:01:59;16.67;;;4.63;;
25936;SDS011;13733;51.178;4.450;2023-07-13T10:04:32;13.68;;;3.90;;
25936;SDS011;13733;51.178;4.450;2023-07-13T10:07:06;13.43;;;4.20;;
25936;SDS011;13733;51.178;4.450;2023-07-13T10:09:33;10.88;;;3.78;;
25936;SDS011;13733;51.178;4.450;2023-07-13T10:12:00;13.85;;;3.90;;
25936;SDS011;13733;51.178;4.450;2023-07-13T10:14:26;15.48;;;3.95;;
25936;SDS011;13733;51.178;4.450;2023-07-13T10:16:58;13.68;;;3.70;;
25936;SDS011;13733;51.178;4.450;2023-07-13T10:19:32;11.40;;;4.50;;
25936;SDS011;13733;51.178;4.450;2023-07-13T10:22:01;10.63;;;3.90;;
25936;SDS011;13733;51.178;4.450;2023-07-13T10:24:35;9.32;;;3.90;;
25936;SDS011;13733;51.178;4.450;2023-07-13T10:29:45;15.98;;;3.63;;
25936;SDS011;13733;51.178;4.450;2023-07-13T10:32:24;15.43;;;3.35;;
25936;SDS011;13733;51.178;4.450;2023-07-13T10:34:50;13.05;;;3.95;;
25936;SDS011;13733;51.178;4.450;2023-07-13T10:37:22;9.32;;;3.25;;
25936;SDS011;13733;51.178;4.450;2023-07-13T10:39:52;10.60;;;3.17;;
25936;SDS011;13733;51.178;4.450;2023-07-13T10:42:26;16.63;;;3.70;;
25936;SDS011;13733;51.178;4.450;2023-07-13T10:44:57;14.43;;;3.25;;
25936;SDS011;13733;51.178;4.450;2023-07-13T10:47:23;10.75;;;2.95;;
25936;SDS011;13733;51.178;4.450;2023-07-13T10:49:51;10.20;;;3.10;;
25936;SDS011;13733;51.178;4.450;2023-07-13T10:57:59;9.10;;;2.78;;
25936;SDS011;13733;51.178;4.450;2023-07-13T11:00:43;18.17;;;3.05;;
25936;SDS011;13733;51.178;4.450;2023-07-13T11:03:13;9.20;;;2.33;;
25936;SDS011;13733;51.178;4.450;2023-07-13T11:13:36;9.15;;;2.70;;
25936;SDS011;13733;51.178;4.450;2023-07-13T11:19:43;10.13;;;2.65;;
25936;SDS011;13733;51.178;4.450;2023-07-13T11:22:01;8.00;;;2.58;;
25936;SDS011;13733;51.178;4.450;2023-07-13T11:24:51;7.22;;;2.45;;
25936;SDS011;13733;51.178;4.450;2023-07-13T11:27:36;6.40;;;2.40;;
25936;SDS011;13733;51.178;4.450;2023-07-13T11:32:43;10.45;;;2.60;;
25936;SDS011;13733;51.178;4.450;2023-07-13T11:35:16;10.30;;;3.40;;
25936;SDS011;13733;51.178;4.450;2023-07-13T11:37:48;11.15;;;3.30;;
25936;SDS011;13733;51.178;4.450;2023-07-13T11:40:14;11.75;;;3.75;;
25936;SDS011;13733;51.178;4.450;2023-07-13T11:42:41;10.35;;;3.70;;
25936;SDS011;13733;51.178;4.450;2023-07-13T11:45:18;10.45;;;3.78;;
25936;SDS011;13733;51.178;4.450;2023-07-13T11:47:48;13.77;;;4.07;;
25936;SDS011;13733;51.178;4.450;2023-07-13T11:50:19;11.27;;;4.18;;
25936;SDS011;13733;51.178;4.450;2023-07-13T11:52:50;19.55;;;5.00;;
25936;SDS011;13733;51.178;4.450;2023-07-13T11:55:20;12.47;;;4.70;;
25936;SDS011;13733;51.178;4.450;2023-07-13T11:57:51;13.18;;;5.05;;
25936;SDS011;13733;51.178;4.450;2023-07-13T12:00:25;13.02;;;5.93;;
25936;SDS011;13733;51.178;4.450;2023-07-13T12:02:54;14.40;;;7.25;;
25936;SDS011;13733;51.178;4.450;2023-07-13T12:05:25;11.40;;;5.88;;
25936;SDS011;13733;51.178;4.450;2023-07-13T12:07:51;9.40;;;5.28;;
25936;SDS011;13733;51.178;4.450;2023-07-13T12:12:51;11.07;;;6.15;;
25936;SDS011;13733;51.178;4.450;2023-07-13T12:15:22;12.88;;;6.07;;
25936;SDS011;13733;51.178;4.450;2023-07-13T12:17:49;17.33;;;8.40;;
25936;SDS011;13733;51.178;4.450;2023-07-13T12:20:23;12.38;;;7.03;;
25936;SDS011;13733;51.178;4.450;2023-07-13T12:22:52;11.82;;;5.43;;
25936;SDS011;13733;51.178;4.450;2023-07-13T12:25:18;11.52;;;4.47;;
25936;SDS011;13733;51.178;4.450;2023-07-13T12:27:49;8.55;;;3.65;;
25936;SDS011;13733;51.178;4.450;2023-07-13T12:33:16;5.38;;;2.75;;
25936;SDS011;13733;51.178;4.450;2023-07-13T12:35:47;6.90;;;3.03;;
25936;SDS011;13733;51.178;4.450;2023-07-13T12:38:15;7.40;;;2.97;;
25936;SDS011;13733;51.178;4.450;2023-07-13T12:40:42;7.53;;;3.00;;
25936;SDS011;13733;51.178;4.450;2023-07-13T12:43:11;6.32;;;2.72;;
25936;SDS011;13733;51.178;4.450;2023-07-13T12:45:39;6.03;;;2.83;;
25936;SDS011;13733;51.178;4.450;2023-07-13T12:48:19;7.50;;;2.75;;
25936;SDS011;13733;51.178;4.450;2023-07-13T12:50:46;6.38;;;2.90;;
25936;SDS011;13733;51.178;4.450;2023-07-13T12:53:15;7.40;;;2.83;;
25936;SDS011;13733;51.178;4.450;2023-07-13T12:55:49;5.55;;;2.83;;
25936;SDS011;13733;51.178;4.450;2023-07-13T12:58:32;3.20;;;2.30;;
25936;SDS011;13733;51.178;4.450;2023-07-13T13:01:04;6.32;;;2.50;;
25936;SDS011;13733;51.178;4.450;2023-07-13T13:03:31;6.78;;;2.30;;
25936;SDS011;13733;51.178;4.450;2023-07-13T13:08:34;5.78;;;2.15;;
25936;SDS011;13733;51.178;4.450;2023-07-13T13:11:01;6.63;;;2.90;;
25936;SDS011;13733;51.178;4.450;2023-07-13T13:13:28;8.23;;;2.83;;
25936;SDS011;13733;51.178;4.450;2023-07-13T13:15:53;10.45;;;3.00;;
25936;SDS011;13733;51.178;4.450;2023-07-13T13:18:20;7.57;;;2.80;;
25936;SDS011;13733;51.178;4.450;2023-07-13T13:20:49;5.07;;;2.30;;
25936;SDS011;13733;51.178;4.450;2023-07-13T13:23:16;5.88;;;2.60;;
25936;SDS011;13733;51.178;4.450;2023-07-13T13:25:45;5.30;;;2.30;;
25936;SDS011;13733;51.178;4.450;2023-07-13T13:28:13;5.60;;;3.00;;
25936;SDS011;13733;51.178;4.450;2023-07-13T13:30:42;6.30;;;2.70;;
25936;SDS011;13733;51.178;4.450;2023-07-13T13:33:12;9.05;;;2.50;;
25936;SDS011;13733;51.178;4.450;2023-07-13T13:35:40;4.55;;;2.13;;
25936;SDS011;13733;51.178;4.450;2023-07-13T13:38:16;6.97;;;2.40;;
25936;SDS011;13733;51.178;4.450;2023-07-13T13:40:44;4.75;;;2.58;;
25936;SDS011;13733;51.178;4.450;2023-07-13T13:43:28;4.70;;;2.33;;
25936;SDS011;13733;51.178;4.450;2023-07-13T13:45:56;7.45;;;2.83;;
25936;SDS011;13733;51.178;4.450;2023-07-13T13:48:34;4.68;;;2.47;;
25936;SDS011;13733;51.178;4.450;2023-07-13T13:51:03;5.93;;;2.40;;
25936;SDS011;13733;51.178;4.450;2023-07-13T13:53:38;8.07;;;2.50;;
25936;SDS011;13733;51.178;4.450;2023-07-13T13:56:04;4.32;;;2.55;;
25936;SDS011;13733;51.178;4.450;2023-07-13T13:58:30;5.30;;;2.60;;
25936;SDS011;13733;51.178;4.450;2023-07-13T14:00:56;6.20;;;2.40;;
25936;SDS011;13733;51.178;4.450;2023-07-13T14:03:23;5.30;;;2.20;;
25936;SDS011;13733;51.178;4.450;2023-07-13T14:05:49;4.53;;;1.92;;
25936;SDS011;13733;51.178;4.450;2023-07-13T14:08:16;7.82;;;2.60;;
25936;SDS011;13733;51.178;4.450;2023-07-13T14:10:45;6.00;;;2.42;;
25936;SDS011;13733;51.178;4.450;2023-07-13T14:13:16;5.40;;;2.10;;
25936;SDS011;13733;51.178;4.450;2023-07-13T14:15:45;5.78;;;2.50;;
25936;SDS011;13733;51.178;4.450;2023-07-13T14:18:11;6.85;;;2.45;;
25936;SDS011;13733;51.178;4.450;2023-07-13T14:20:37;5.97;;;2.38;;
25936;SDS011;13733;51.178;4.450;2023-07-13T14:23:03;6.15;;;2.20;;
25936;SDS011;13733;51.178;4.450;2023-07-13T14:25:29;5.70;;;2.33;;
25936;SDS011;13733;51.178;4.450;2023-07-13T14:27:56;5.45;;;2.47;;
25936;SDS011;13733;51.178;4.450;2023-07-13T14:30:32;6.63;;;2.47;;
25936;SDS011;13733;51.178;4.450;2023-07-13T14:32:58;5.57;;;2.47;;
25936;SDS011;13733;51.178;4.450;2023-07-13T14:35:24;8.43;;;2.33;;
25936;SDS011;13733;51.178;4.450;2023-07-13T14:37:51;5.35;;;2.17;;
25936;SDS011;13733;51.178;4.450;2023-07-13T14:40:17;4.40;;;2.35;;
25936;SDS011;13733;51.178;4.450;2023-07-13T14:42:49;4.90;;;2.40;;
25936;SDS011;13733;51.178;4.450;2023-07-13T14:45:16;8.27;;;2.10;;
25936;SDS011;13733;51.178;4.450;2023-07-13T14:47:44;5.40;;;2.78;;
25936;SDS011;13733;51.178;4.450;2023-07-13T14:52:43;6.65;;;2.83;;
25936;SDS011;13733;51.178;4.450;2023-07-13T14:55:14;6.25;;;2.42;;
25936;SDS011;13733;51.178;4.450;2023-07-13T14:57:41;4.72;;;2.50;;
25936;SDS011;13733;51.178;4.450;2023-07-13T15:00:17;5.85;;;2.20;;
25936;SDS011;13733;51.178;4.450;2023-07-13T15:02:45;9.00;;;1.92;;
25936;SDS011;13733;51.178;4.450;2023-07-13T15:05:24;6.72;;;2.28;;
25936;SDS011;13733;51.178;4.450;2023-07-13T15:07:56;9.02;;;2.78;;
25936;SDS011;13733;51.178;4.450;2023-07-13T15:10:25;6.45;;;2.22;;
25936;SDS011;13733;51.178;4.450;2023-07-13T15:13:01;5.13;;;2.20;;
25936;SDS011;13733;51.178;4.450;2023-07-13T15:15:44;6.53;;;2.47;;
25936;SDS011;13733;51.178;4.450;2023-07-13T15:18:13;7.00;;;2.47;;
25936;SDS011;13733;51.178;4.450;2023-07-13T15:20:42;9.43;;;2.80;;
25936;SDS011;13733;51.178;4.450;2023-07-13T15:23:10;7.07;;;2.05;;
25936;SDS011;13733;51.178;4.450;2023-07-13T15:25:37;5.38;;;2.08;;
25936;SDS011;13733;51.178;4.450;2023-07-13T15:28:03;6.07;;;2.63;;
25936;SDS011;13733;51.178;4.450;2023-07-13T15:30:30;4.85;;;2.05;;
25936;SDS011;13733;51.178;4.450;2023-07-13T15:33:00;5.75;;;2.65;;
25936;SDS011;13733;51.178;4.450;2023-07-13T15:35:55;6.53;;;2.17;;
25936;SDS011;13733;51.178;4.450;2023-07-13T15:38:28;7.03;;;2.47;;
25936;SDS011;13733;51.178;4.450;2023-07-13T15:40:55;8.88;;;2.25;;